Time;durP1;ratioP1;P1;durP2;ratioP2;P2;SDS_P1;SDS_P2;PMS_P1;PMS_P2;Temp;Humidity;BMP_temperature;BMP_pressure;BME280_temperature;BME280_humidity;BME280_pressure;Samples;Min_cycle;Max_cycle;Signal;HPM_P1;HPM_P2
2023/10/20 00:02:27;;;;;;;38.17;19.40;;;8.90;99.90;;;;;;4970682;28;20042;-72
2023/10/20 00:04:53;;;;;;;40.65;19.08;;;;;;;;;;4969331;28;20062;-71
2023/10/20 00:07:21;;;;;;;36.40;19.23;;;;;;;;;;4969387;28;20046;-72
2023/10/20 00:09:49;;;;;;;41.00;19.35;;;;;;;;;;4969271;28;20062;-72
2023/10/20 00:12:15;;;;;;;37.75;18.40;;;;;;;;;;4970638;28;20126;-72
2023/10/20 00:14:41;;;;;;;37.63;19.48;;;;;;;;;;4969114;28;20558;-72
2023/10/20 00:17:07;;;;;;;42.00;19.95;;;;;;;;;;4969326;28;20051;-72
2023/10/20 00:19:33;;;;;;;32.47;17.02;;;;;;;;;;4969760;28;20085;-72
2023/10/20 00:21:59;;;;;;;37.35;19.17;;;;;;;;;;4969794;28;20456;-73
2023/10/20 00:24:25;;;;;;;45.72;21.35;;;;;;;;;;4970734;28;20039;-73
2023/10/20 00:26:51;;;;;;;43.45;20.10;;;;;;;;;;4969033;28;20441;-74
2023/10/20 00:29:17;;;;;;;43.85;19.48;;;;;;;;;;4966351;28;20113;-73
2023/10/20 00:31:43;;;;;;;38.25;20.20;;;;;;;;;;4969713;28;20413;-72
2023/10/20 00:34:09;;;;;;;34.60;19.88;;;8.80;99.90;;;;;;4968901;28;20146;-72
2023/10/20 00:36:35;;;;;;;35.78;16.40;;;;;;;;;;4968489;28;20043;-72
2023/10/20 00:39:02;;;;;;;34.80;16.35;;;;;;;;;;4968509;28;20047;-72
2023/10/20 00:41:28;;;;;;;32.78;15.48;;;;;;;;;;4972305;28;20626;-72
2023/10/20 00:43:54;;;;;;;33.65;16.98;;;8.70;99.90;;;;;;4968664;28;20050;-71
2023/10/20 00:46:20;;;;;;;37.08;19.05;;;;;;;;;;4984925;28;20515;-72
2023/10/20 00:48:46;;;;;;;40.47;19.73;;;;;;;;;;4970009;28;20048;-72
2023/10/20 00:51:11;;;;;;;42.70;20.63;;;8.60;99.90;;;;;;4970209;28;20047;-72
2023/10/20 00:53:37;;;;;;;27.08;15.07;;;;;;;;;;4971816;28;20133;-72
2023/10/20 00:56:04;;;;;;;41.10;19.05;;;;;;;;;;4968177;28;20078;-72
2023/10/20 00:58:31;;;;;;;26.23;11.30;;;;;;;;;;4967583;28;20046;-73
2023/10/20 01:00:57;;;;;;;34.60;17.35;;;;;;;;;;4969992;28;20496;-72
2023/10/20 01:06:48;;;;;;;34.92;17.13;;;;;;;;;;4971009;28;20034;-73
2023/10/20 01:09:23;;;;;;;33.53;15.82;;;;;;;;;;4968554;28;20085;-72
2023/10/20 01:11:49;;;;;;;40.73;15.70;;;;;;;;;;4967527;28;20047;-72
2023/10/20 01:14:15;;;;;;;37.17;18.35;;;;;;;;;;4969906;28;20459;-72
2023/10/20 01:16:41;;;;;;;36.13;16.10;;;;;;;;;;4968199;28;20042;-72
2023/10/20 01:19:06;;;;;;;33.67;17.98;;;;;;;;;;4968681;28;20051;-73
2023/10/20 01:21:32;;;;;;;40.25;18.15;;;8.50;99.90;;;;;;4968516;28;20030;-72
2023/10/20 01:24:01;;;;;;;44.70;19.85;;;;;;;;;;4968401;28;20084;-72
2023/10/20 01:26:29;;;;;;;41.22;18.10;;;;;;;;;;4963112;28;20050;-72
2023/10/20 01:28:55;;;;;;;35.97;14.43;;;;;;;;;;4968267;28;20046;-72
2023/10/20 01:31:22;;;;;;;42.92;19.48;;;;;;;;;;4967768;28;20113;-72
2023/10/20 01:33:48;;;;;;;35.38;15.18;;;;;;;;;;4967609;28;20059;-72
2023/10/20 01:36:14;;;;;;;49.33;20.85;;;;;;;;;;4968151;28;20649;-72
2023/10/20 01:38:40;;;;;;;47.78;20.27;;;;;;;;;;4967868;28;20452;-72
2023/10/20 01:41:07;;;;;;;46.13;19.85;;;;;;;;;;4967892;28;20043;-72
2023/10/20 01:43:33;;;;;;;43.75;19.80;;;;;;;;;;4967445;28;20081;-72
2023/10/20 01:45:59;;;;;;;50.33;20.73;;;;;;;;;;4969480;28;20822;-72
2023/10/20 01:48:25;;;;;;;51.40;21.52;;;;;;;;;;4967864;28;20045;-72
2023/10/20 01:50:51;;;;;;;55.92;21.95;;;;;;;;;;4969141;28;20405;-71
2023/10/20 01:53:17;;;;;;;53.17;21.10;;;;;;;;;;4969045;28;20125;-72
2023/10/20 01:55:49;;;;;;;50.78;23.05;;;;;;;;;;4967349;28;20055;-71
2023/10/20 01:58:15;;;;;;;44.70;20.45;;;;;;;;;;4967754;28;20513;-74
2023/10/20 02:00:41;;;;;;;44.97;20.90;;;;;;;;;;4967713;28;20119;-72
2023/10/20 02:03:07;;;;;;;56.75;22.88;;;;;;;;;;4967734;28;20058;-72
2023/10/20 02:05:32;;;;;;;56.17;23.02;;;8.40;99.90;;;;;;4967692;28;20057;-72
2023/10/20 02:07:58;;;;;;;44.55;19.20;;;;;;;;;;4967773;28;20043;-71
2023/10/20 02:10:25;;;;;;;51.67;21.77;;;;;;;;;;4969215;28;20501;-71
2023/10/20 02:13:00;;;;;;;47.47;22.67;;;;;;;;;;4967582;28;20058;-72
2023/10/20 02:15:26;;;;;;;46.22;22.23;;;;;;;;;;4967202;28;20401;-72
2023/10/20 02:17:52;;;;;;;52.35;22.50;;;;;;;;;;4967564;28;20101;-72
2023/10/20 02:20:22;;;;;;;53.40;19.95;;;;;;;;;;4966905;28;20485;-72
2023/10/20 02:22:50;;;;;;;42.28;19.27;;;;;;;;;;4967736;28;20050;-72
2023/10/20 02:25:16;;;;;;;49.65;23.70;;;;;;;;;;4963046;28;20046;-72
2023/10/20 02:27:42;;;;;;;49.40;21.60;;;;;;;;;;4968096;28;20056;-72
2023/10/20 02:30:10;;;;;;;51.97;21.60;;;;;;;;;;4967889;28;20042;-72
2023/10/20 02:32:36;;;;;;;51.33;21.65;;;;;;;;;;4966903;28;20104;-73
2023/10/20 02:35:02;;;;;;;30.02;15.15;;;;;;;;;;4966343;28;20507;-72
2023/10/20 02:37:28;;;;;;;46.08;21.08;;;;;;;;;;4966473;28;20879;-73
2023/10/20 02:39:54;;;;;;;47.78;21.35;;;;;;;;;;4969816;28;20067;-72
2023/10/20 02:42:20;;;;;;;45.65;21.77;;;;;;;;;;4966343;28;20043;-72
2023/10/20 02:44:46;;;;;;;30.13;14.50;;;;;;;;;;4966691;28;20045;-73
2023/10/20 02:47:11;;;;;;;43.65;20.30;;;8.60;99.90;;;;;;4966469;28;20043;-72
2023/10/20 02:49:37;;;;;;;45.28;19.52;;;;;;;;;;4966689;28;20077;-72
2023/10/20 02:52:04;;;;;;;47.25;20.95;;;;;;;;;;4966583;28;20054;-76
2023/10/20 02:54:29;;;;;;;44.95;20.88;;;;;;;;;;4966577;28;20476;-75
2023/10/20 02:56:57;;;;;;;48.40;21.13;;;;;;;;;;4966569;28;20061;-72
2023/10/20 02:59:23;;;;;;;50.38;23.30;;;;;;;;;;4966568;28;20093;-72
2023/10/20 03:01:49;;;;;;;43.78;21.25;;;;;;;;;;4966704;28;20055;-73
2023/10/20 03:04:15;;;;;;;50.95;22.13;;;;;;;;;;4967716;28;20054;-72
2023/10/20 03:06:41;;;;;;;30.67;17.48;;;;;;;;;;4966279;28;20050;-72
2023/10/20 03:09:07;;;;;;;47.35;21.48;;;;;;;;;;4967371;28;20097;-73
2023/10/20 03:11:34;;;;;;;43.80;21.80;;;;;;;;;;4966197;28;20578;-72
2023/10/20 03:14:00;;;;;;;46.55;20.35;;;;;;;;;;4967290;28;20061;-72
2023/10/20 03:16:27;;;;;;;47.30;21.80;;;;;;;;;;4965659;28;20807;-72
2023/10/20 03:18:53;;;;;;;47.45;22.17;;;;;;;;;;4966488;28;20475;-72
2023/10/20 03:21:21;;;;;;;51.42;21.25;;;;;;;;;;4972360;28;20038;-73
2023/10/20 03:23:47;;;;;;;46.95;20.58;;;;;;;;;;4966255;28;20161;-74
2023/10/20 03:26:13;;;;;;;39.20;20.13;;;;;;;;;;4965958;28;20156;-73
2023/10/20 03:28:39;;;;;;;46.45;21.02;;;;;;;;;;4967556;28;20038;-72
2023/10/20 03:31:06;;;;;;;44.67;20.65;;;;;;;;;;4965875;28;20043;-73
2023/10/20 03:33:32;;;;;;;40.30;20.45;;;;;;;;;;4965732;28;20058;-72
2023/10/20 03:35:59;;;;;;;48.47;21.30;;;;;;;;;;4966336;28;20058;-72
2023/10/20 03:38:25;;;;;;;35.05;20.30;;;;;;;;;;4966732;28;20047;-74
2023/10/20 03:40:51;;;;;;;43.08;19.23;;;;;;;;;;4966395;28;20054;-72
2023/10/20 03:43:17;;;;;;;42.00;19.42;;;;;;;;;;4971686;28;20055;-72
2023/10/20 03:45:49;;;;;;;40.38;19.88;;;;;;;;;;4966583;28;20050;-72
2023/10/20 03:48:16;;;;;;;46.97;21.27;;;;;;;;;;4967707;28;20472;-73
2023/10/20 03:50:44;;;;;;;43.33;19.40;;;;;;;;;;4966226;28;20054;-74
2023/10/20 03:53:15;;;;;;;42.72;19.65;;;;;;;;;;4967414;28;20047;-73
2023/10/20 03:55:41;;;;;;;42.53;18.35;;;;;;;;;;4965744;28;20038;-73
2023/10/20 03:58:07;;;;;;;38.88;20.10;;;;;;;;;;4966114;28;20058;-74
2023/10/20 04:00:36;;;;;;;39.45;18.92;;;;;;;;;;4965541;28;20057;-72
2023/10/20 04:03:03;;;;;;;32.83;17.75;;;;;;;;;;4966055;28;20057;-73
2023/10/20 04:05:29;;;;;;;37.65;18.88;;;;;;;;;;4967103;28;20153;-72
2023/10/20 04:07:55;;;;;;;35.78;19.48;;;;;;;;;;4965593;28;20053;-72
2023/10/20 04:10:21;;;;;;;39.03;19.58;;;;;;;;;;4967115;28;20047;-73
2023/10/20 04:12:47;;;;;;;36.38;17.50;;;;;;;;;;4967240;28;20142;-72
2023/10/20 04:15:19;;;;;;;32.30;16.77;;;;;;;;;;4965576;28;20054;-73
2023/10/20 04:17:51;;;;;;;28.27;15.25;;;;;;;;;;4963934;28;20051;-72
2023/10/20 04:20:17;;;;;;;28.42;15.18;;;;;;;;;;4966896;28;20082;-72
2023/10/20 04:22:44;;;;;;;27.52;14.13;;;;;;;;;;4965470;28;20047;-72
2023/10/20 04:25:15;;;;;;;35.72;17.83;;;;;;;;;;4966897;28;20094;-72
2023/10/20 04:28:42;;;;;;;34.90;16.25;;;;;;;;;;4966029;28;20057;-73
2023/10/20 05:00:37;;;;;;;36.75;16.42;;;;;;;;;;4968324;28;20050;-72
2023/10/20 05:05:42;;;;;;;33.95;16.77;;;;;;;;;;4968376;28;20053;-72
2023/10/20 05:10:37;;;;;;;31.02;15.70;;;;;;;;;;4967711;28;20054;-75
2023/10/20 05:13:03;;;;;;;28.30;15.32;;;;;;;;;;4968752;28;20078;-73
2023/10/20 05:15:32;;;;;;;29.13;15.18;;;;;;;;;;4969910;28;20074;-72
2023/10/20 05:17:58;;;;;;;25.92;13.95;;;;;;;;;;4968231;28;20130;-72
2023/10/20 05:20:25;;;;;;;29.52;16.02;;;;;;;;;;4968731;28;20054;-73
2023/10/20 05:22:51;;;;;;;29.13;15.52;;;8.30;99.90;;;;;;4969231;28;20078;-72
2023/10/20 05:25:17;;;;;;;34.28;14.63;;;;;;;;;;4952897;28;20081;-73
2023/10/20 05:27:43;;;;;;;24.10;13.10;;;;;;;;;;4968039;28;20051;-73
2023/10/20 05:30:09;;;;;;;28.55;14.95;;;;;;;;;;4967967;28;20082;-72
2023/10/20 05:32:37;;;;;;;29.80;16.25;;;;;;;;;;4968313;28;20765;-72
2023/10/20 05:35:04;;;;;;;37.47;17.13;;;;;;;;;;4968661;28;20512;-74
2023/10/20 05:37:30;;;;;;;30.75;16.75;;;;;;;;;;4968493;28;20045;-73
2023/10/20 05:42:31;;;;;;;27.50;14.10;;;;;;;;;;4986544;28;20046;-72
2023/10/20 05:45:09;;;;;;;31.17;15.32;;;;;;;;;;4987435;28;20042;-72
2023/10/20 05:47:35;;;;;;;33.50;17.75;;;;;;;;;;4987332;28;20086;-72
2023/10/20 05:50:02;;;;;;;32.92;17.00;;;;;;;;;;4987036;28;20096;-72
2023/10/20 05:52:28;;;;;;;21.20;11.95;;;;;;;;;;5000288;28;20130;-75
2023/10/20 05:54:55;;;;;;;31.02;16.02;;;;;;;;;;4986273;28;20050;-73
2023/10/20 05:57:22;;;;;;;32.53;17.13;;;;;;;;;;4988321;28;20034;-72
2023/10/20 05:59:48;;;;;;;31.80;16.40;;;;;;;;;;4986987;28;20429;-73
2023/10/20 06:02:14;;;;;;;31.88;15.27;;;;;;;;;;4986863;28;20810;-72
2023/10/20 06:04:40;;;;;;;30.83;16.02;;;;;;;;;;4986627;28;20042;-72
2023/10/20 06:07:10;;;;;;;33.17;15.95;;;;;;;;;;4987144;28;20484;-72
2023/10/20 06:09:37;;;;;;;29.80;14.77;;;;;;;;;;4987342;28;20089;-73
2023/10/20 06:12:03;;;;;;;29.27;15.75;;;;;;;;;;4986272;28;20050;-72
2023/10/20 06:14:30;;;;;;;23.75;13.95;;;;;;;;;;4988050;28;20054;-73
2023/10/20 06:16:56;;;;;;;19.10;11.10;;;;;;;;;;5003113;28;20060;-73
2023/10/20 06:19:23;;;;;;;22.23;12.18;;;;;;;;;;4986558;28;20119;-73
2023/10/20 06:21:50;;;;;;;22.50;13.55;;;;;;;;;;4986548;28;20077;-73
2023/10/20 06:24:16;;;;;;;24.27;12.25;;;;;;;;;;4986759;28;20101;-72
2023/10/20 06:26:42;;;;;;;18.63;10.60;;;8.20;99.90;;;;;;4987993;28;20049;-71
2023/10/20 06:32:21;;;;;;;19.27;11.60;;;;;;;;;;4968947;28;20070;-72
2023/10/20 06:34:47;;;;;;;25.55;11.45;;;;;;;;;;4983057;28;20062;-71
2023/10/20 06:37:20;;;;;;;16.58;9.45;;;;;;;;;;5000180;28;20116;-70
2023/10/20 06:39:48;;;;;;;19.88;10.02;;;;;;;;;;4984667;28;20042;-72
2023/10/20 06:42:14;;;;;;;18.98;10.77;;;;;;;;;;4985270;28;20046;-71
2023/10/20 06:44:40;;;;;;;19.55;10.32;;;;;;;;;;4985650;28;20563;-71
2023/10/20 06:47:06;;;;;;;18.95;11.20;;;;;;;;;;4969737;28;20062;-70
2023/10/20 06:49:32;;;;;;;18.42;10.48;;;;;;;;;;4986255;28;20065;-71
2023/10/20 06:52:03;;;;;;;16.10;10.27;;;;;;;;;;4985856;28;20050;-72
2023/10/20 06:54:29;;;;;;;10.07;6.25;;;;;;;;;;4985860;28;20061;-71
2023/10/20 06:56:55;;;;;;;18.00;10.05;;;;;;;;;;4986325;28;20159;-72
2023/10/20 06:59:21;;;;;;;19.38;10.48;;;;;;;;;;4985853;28;20476;-70
2023/10/20 07:01:47;;;;;;;16.65;9.48;;;;;;;;;;4970799;28;20170;-71
2023/10/20 07:04:13;;;;;;;16.33;10.00;;;;;;;;;;4985554;28;20081;-71
2023/10/20 07:06:43;;;;;;;19.83;9.55;;;;;;;;;;4990830;28;20147;-71
2023/10/20 07:09:13;;;;;;;14.35;9.02;;;;;;;;;;4985780;28;20108;-71
2023/10/20 07:11:39;;;;;;;11.70;6.85;;;;;;;;;;4969718;28;20074;-71
2023/10/20 07:14:05;;;;;;;13.45;9.05;;;;;;;;;;5000666;28;20055;-71
2023/10/20 07:16:32;;;;;;;16.30;8.65;;;8.50;99.90;;;;;;4985024;28;20408;-72
2023/10/20 07:18:58;;;;;;;15.43;7.85;;;;;;;;;;4986112;28;20042;-70
2023/10/20 07:21:24;;;;;;;20.30;8.70;;;;;;;;;;4986114;28;20046;-71
2023/10/20 07:23:50;;;;;;;13.75;8.15;;;;;;;;;;4987092;28;20520;-71
2023/10/20 07:26:17;;;;;;;13.60;7.38;;;;;;;;;;4971243;28;20046;-72
2023/10/20 07:28:47;;;;;;;10.68;6.10;;;;;;;;;;5001201;28;20054;-73
2023/10/20 07:31:13;;;;;;;13.57;7.47;;;;;;;;;;5001711;28;20049;-72
2023/10/20 07:33:39;;;;;;;13.20;7.40;;;;;;;;;;4985420;28;20802;-72
2023/10/20 07:36:05;;;;;;;11.25;7.45;;;;;;;;;;4985609;28;20453;-72
2023/10/20 07:38:31;;;;;;;14.35;7.80;;;;;;;;;;4985373;28;20057;-74
2023/10/20 07:41:03;;;;;;;10.15;6.53;;;;;;;;;;4985160;28;20505;-73
2023/10/20 07:43:30;;;;;;;12.15;6.88;;;;;;;;;;4985513;28;20125;-72
2023/10/20 07:45:56;;;;;;;12.75;6.25;;;;;;;;;;4985632;28;20393;-72
2023/10/20 07:48:22;;;;;;;12.23;6.88;;;;;;;;;;4985394;28;20057;-73
2023/10/20 07:50:48;;;;;;;12.57;6.28;;;;;;;;;;4985396;28;20125;-74
2023/10/20 07:53:14;;;;;;;11.88;6.00;;;;;;;;;;4969306;28;20046;-73
2023/10/20 07:55:40;;;;;;;10.15;5.70;;;;;;;;;;4969553;28;20042;-71
2023/10/20 07:58:08;;;;;;;9.52;4.85;;;;;;;;;;4985793;28;20129;-73
2023/10/20 08:00:36;;;;;;;9.02;5.22;;;;;;;;;;4985443;28;20055;-73
2023/10/20 08:03:02;;;;;;;9.15;5.07;;;;;;;;;;4985623;28;20053;-73
2023/10/20 08:05:28;;;;;;;7.05;4.30;;;;;;;;;;4986782;28;20111;-73
2023/10/20 08:07:58;;;;;;;8.27;5.30;;;;;;;;;;4989247;28;20050;-73
2023/10/20 08:10:24;;;;;;;6.32;3.42;;;;;;;;;;4988473;28;20049;-72
2023/10/20 08:12:50;;;;;;;8.23;4.63;;;;;;;;;;4972093;28;20468;-71
2023/10/20 08:15:16;;;;;;;10.32;4.60;;;;;;;;;;4989925;28;20538;-73
2023/10/20 08:17:44;;;;;;;7.03;4.57;;;;;;;;;;4988801;28;20042;-71
2023/10/20 08:20:11;;;;;;;6.90;4.18;;;;;;;;;;4988327;28;20084;-71
2023/10/20 08:22:37;;;;;;;5.80;3.95;;;;;;;;;;4987580;28;20097;-71
2023/10/20 08:25:03;;;;;;;7.28;3.83;;;;;;;;;;4988664;28;20046;-71
2023/10/20 08:27:30;;;;;;;4.43;2.67;;;;;;;;;;4988203;28;20046;-71
2023/10/20 08:29:57;;;;;;;5.43;3.55;;;;;;;;;;4987754;28;20054;-71
2023/10/20 08:32:27;;;;;;;6.13;3.85;;;;;;;;;;4988255;28;20130;-71
2023/10/20 08:34:53;;;;;;;7.32;3.80;;;;;;;;;;4988098;28;20104;-71
2023/10/20 08:37:19;;;;;;;4.38;3.47;;;;;;;;;;4988533;28;20484;-71
2023/10/20 08:39:45;;;;;;;4.95;3.33;;;;;;;;;;4988022;28;20301;-71
2023/10/20 08:42:18;;;;;;;5.80;3.20;;;;;;;;;;4987895;28;20089;-71
2023/10/20 08:44:45;;;;;;;4.40;2.83;;;;;;;;;;4987975;28;20054;-71
2023/10/20 08:47:15;;;;;;;4.45;2.50;;;;;;;;;;4985046;28;20057;-71
2023/10/20 08:49:41;;;;;;;4.40;2.70;;;;;;;;;;4998820;28;20417;-71
2023/10/20 08:52:08;;;;;;;5.25;2.60;;;;;;;;;;4988478;28;20053;-71
2023/10/20 08:54:34;;;;;;;4.40;2.17;;;;;;;;;;4989264;28;20523;-71
2023/10/20 08:57:00;;;;;;;4.72;2.65;;;;;;;;;;4987890;28;20050;-71
2023/10/20 08:59:26;;;;;;;3.03;2.10;;;;;;;;;;4989020;28;20053;-71
2023/10/20 09:01:52;;;;;;;2.80;2.00;;;;;;;;;;4987931;28;20086;-71
2023/10/20 09:04:26;;;;;;;3.33;2.58;;;;;;;;;;4987644;28;20054;-71
2023/10/20 09:06:53;;;;;;;2.95;2.08;;;;;;;;;;4987583;28;20064;-71
2023/10/20 09:09:19;;;;;;;5.68;2.08;;;;;;;;;;4987333;28;20046;-71
2023/10/20 09:11:46;;;;;;;2.63;2.13;;;;;;;;;;4981330;28;20046;-71
2023/10/20 09:14:12;;;;;;;3.47;2.03;;;;;;;;;;4987360;28;20057;-71
2023/10/20 09:16:42;;;;;;;3.50;1.90;;;;;;;;;;4960444;28;20054;-71
2023/10/20 09:19:11;;;;;;;2.47;1.75;;;;;;;;;;4987264;28;20129;-71
2023/10/20 09:21:41;;;;;;;2.30;1.77;;;;;;;;;;4987015;28;20125;-71
2023/10/20 09:24:09;;;;;;;3.35;1.65;;;;;;;;;;4987854;28;20726;-71
2023/10/20 09:26:35;;;;;;;1.17;1.00;;;;;;;;;;4988405;28;20420;-71
2023/10/20 09:29:02;;;;;;;2.38;1.92;;;;;;;;;;4988365;28;20046;-70
2023/10/20 09:31:28;;;;;;;4.28;1.58;;;;;;;;;;4986928;28;20038;-71
2023/10/20 09:33:55;;;;;;;2.45;1.80;;;;;;;;;;4987069;28;20053;-71
2023/10/20 09:36:24;;;;;;;3.47;1.90;;;;;;;;;;4986765;28;20085;-71
2023/10/20 09:38:54;;;;;;;3.08;1.10;;;;;;;;;;4988378;28;20515;-71
2023/10/20 09:41:24;;;;;;;2.22;1.58;;;;;;;;;;4981975;28;20054;-71
2023/10/20 09:43:54;;;;;;;1.90;1.70;;;;;;;;;;4986509;28;20058;-71
2023/10/20 09:46:20;;;;;;;1.98;1.77;;;;;;;;;;4986468;28;20050;-71
2023/10/20 09:48:47;;;;;;;2.95;1.73;;;;;;;;;;4986622;28;20052;-71
2023/10/20 09:51:15;;;;;;;2.78;1.55;;;;;;;;;;4986737;28;20141;-70
2023/10/20 09:53:41;;;;;;;2.00;1.73;;;;;;;;;;4986615;28;20050;-71
2023/10/20 09:56:07;;;;;;;1.75;1.55;;;;;;;;;;4986529;28;20050;-71
2023/10/20 09:58:34;;;;;;;1.98;1.25;;;;;;;;;;4986149;28;20081;-70
2023/10/20 10:01:00;;;;;;;4.13;1.80;;;;;;;;;;4987714;28;20046;-70
2023/10/20 10:03:37;;;;;;;1.85;1.63;;;;;;;;;;4986504;28;20054;-71
2023/10/20 10:06:08;;;;;;;1.88;1.23;;;;;;;;;;4986696;28;20085;-71
2023/10/20 10:08:37;;;;;;;1.48;1.17;;;;;;;;;;4987183;28;20046;-72
2023/10/20 10:11:17;;;;;;;3.70;1.10;;;;;;;;;;4986653;28;20046;-70
2023/10/20 10:13:43;;;;;;;1.45;1.35;;;;;;;;;;4985781;28;20492;-70
2023/10/20 10:16:10;;;;;;;1.58;1.30;;;;;;;;;;4979764;28;20177;-70
2023/10/20 10:18:45;;;;;;;2.47;1.50;;;;;;;;;;4986202;28;20057;-70
2023/10/20 10:21:22;;;;;;;2.97;1.52;;;;;;;;;;4983894;28;20428;-71
2023/10/20 10:24:07;;;;;;;1.73;1.30;;;;;;;;;;4986217;28;20633;-71
2023/10/20 10:26:33;;;;;;;2.30;1.17;;;;;;;;;;4999277;28;20053;-71
2023/10/20 10:28:59;;;;;;;2.08;1.20;;;;;;;;;;4986265;28;20046;-71
2023/10/20 10:31:35;;;;;;;2.45;1.20;;;;;;;;;;4980536;28;20121;-71
2023/10/20 10:34:04;;;;;;;1.33;1.23;;;;;;;;;;4983890;28;20054;-71
2023/10/20 10:36:30;;;;;;;2.63;1.33;;;;;;;;;;4985294;28;20046;-71
2023/10/20 10:38:57;;;;;;;1.63;1.20;;;;;;;;;;4986243;28;20057;-71
2023/10/20 10:41:24;;;;;;;1.63;1.05;;;;;;;;;;4984997;28;20132;-71
2023/10/20 10:43:57;;;;;;;1.08;1.02;;;;;;;;;;4984676;28;20057;-70
2023/10/20 10:46:33;;;;;;;1.25;0.95;;;;;;;;;;4984971;28;20042;-71
2023/10/20 10:49:09;;;;;;;1.10;1.00;;;;;;;;;;4985174;28;20124;-71
2023/10/20 10:51:48;;;;;;;1.75;1.10;;;;;;;;;;4984876;28;20057;-71
2023/10/20 10:54:14;;;;;;;0.93;0.82;;;;;;;;;;4985148;28;20042;-71
2023/10/20 10:56:44;;;;;;;1.63;1.20;;;;;;;;;;4980847;28;20045;-71
2023/10/20 10:59:11;;;;;;;2.88;1.33;;;;;;;;;;4983981;28;20046;-71
2023/10/20 11:01:41;;;;;;;1.85;1.20;;;;;;;;;;4986217;28;20056;-71
2023/10/20 11:04:08;;;;;;;1.08;0.98;;;;;;;;;;4985182;28;20500;-71
2023/10/20 11:06:37;;;;;;;1.00;0.90;;;;;;;;;;4983205;28;20129;-71
2023/10/20 11:09:05;;;;;;;1.10;1.00;;;;;;;;;;4982725;28;20070;-72
2023/10/20 11:11:31;;;;;;;1.35;1.08;;;;;;;;;;4985812;28;20050;-71
2023/10/20 11:13:58;;;;;;;1.23;1.13;;;;;;;;;;4982641;28;20056;-71
2023/10/20 11:16:24;;;;;;;1.45;0.90;;;;;;;;;;4985142;28;20074;-71
2023/10/20 11:18:51;;;;;;;1.25;1.15;;;;;;;;;;4984175;28;20085;-73
2023/10/20 11:21:17;;;;;;;1.20;1.10;;;;;;;;;;4987015;28;20052;-72
2023/10/20 11:23:49;;;;;;;1.30;1.20;;;;;;;;;;4986916;28;20054;-73
2023/10/20 11:26:17;;;;;;;1.33;1.00;;;;;;;;;;4968461;28;20117;-71
2023/10/20 11:28:44;;;;;;;1.10;1.00;;;;;;;;;;4983317;28;20061;-71
2023/10/20 11:31:11;;;;;;;1.17;1.02;;;;;;;;;;4987884;28;20050;-70
2023/10/20 11:33:37;;;;;;;1.10;0.90;;;;;;;;;;4984737;28;20050;-70
2023/10/20 11:36:04;;;;;;;1.20;1.10;;;;;;;;;;4984956;28;20049;-71
2023/10/20 11:38:32;;;;;;;1.45;1.35;;;;;;;;;;4984472;28;20034;-72
2023/10/20 11:40:59;;;;;;;0.77;0.73;;;;;;;;;;4968343;28;20058;-72
2023/10/20 11:43:25;;;;;;;0.70;0.70;;;;;;;;;;4965770;28;20042;-71
2023/10/20 11:45:51;;;;;;;0.95;0.80;;;;;;;;;;4984835;28;20053;-71
2023/10/20 11:48:17;;;;;;;1.10;1.00;;;;;;;;;;4984886;28;20386;-71
2023/10/20 11:50:43;;;;;;;4.75;0.95;;;;;;;;;;4986315;28;20563;-72
2023/10/20 11:53:09;;;;;;;0.95;0.80;;;;;;;;;;4984887;28;20788;-69
2023/10/20 11:55:35;;;;;;;0.85;0.70;;;;;;;;;;4985270;28;20042;-71
2023/10/20 11:58:03;;;;;;;1.10;1.00;;;;;;;;;;4983488;28;20515;-70
2023/10/20 12:00:30;;;;;;;0.85;0.85;;;;;;;;;;4984721;28;20118;-71
2023/10/20 12:02:56;;;;;;;1.55;0.70;;;;;;;;;;4984186;28;20047;-72
2023/10/20 12:05:22;;;;;;;1.30;1.10;;;;;;;;;;4985388;28;20047;-71
2023/10/20 12:07:49;;;;;;;0.80;0.80;;;;;;;;;;4984946;28;20084;-72
2023/10/20 12:10:15;;;;;;;1.02;0.98;;;;;;;;;;4986330;28;20113;-72
2023/10/20 12:12:41;;;;;;;0.77;0.75;;;;;;;;;;4984381;28;20042;-70
2023/10/20 12:15:07;;;;;;;2.28;1.10;;;;;;;;;;4984519;28;20082;-70
2023/10/20 12:17:33;;;;;;;1.20;1.02;;;;;;;;;;4983591;28;20039;-74
2023/10/20 12:19:59;;;;;;;1.58;0.95;;;;;;;;;;4981938;28;20046;-71
2023/10/20 12:22:25;;;;;;;0.68;0.68;;;;;;;;;;4974692;28;20053;-72
2023/10/20 12:24:55;;;;;;;0.95;0.95;;;;;;;;;;4982602;28;20133;-73
2023/10/20 12:27:21;;;;;;;0.98;0.98;;;;;;;;;;4980243;28;20053;-75
2023/10/20 12:29:47;;;;;;;0.80;0.80;;;;;;;;;;4965209;28;20106;-72
2023/10/20 12:32:14;;;;;;;0.77;0.77;;;;;;;;;;4981985;28;20069;-72
2023/10/20 12:34:40;;;;;;;1.10;1.00;;;;;;;;;;4965894;28;20042;-75
2023/10/20 12:37:06;;;;;;;2.92;0.88;;;;;;;;;;4981985;28;20050;-71
2023/10/20 12:39:32;;;;;;;1.10;1.00;;;;;;;;;;4981762;28;20046;-70
2023/10/20 12:42:04;;;;;;;1.20;0.77;;;;;;;;;;4981389;28;20047;-73
2023/10/20 12:44:30;;;;;;;0.82;0.73;;;;;;;;;;4980413;28;20499;-75
2023/10/20 12:46:57;;;;;;;1.20;0.85;;;;;;;;;;4982850;28;20783;-73
2023/10/20 12:49:23;;;;;;;1.08;0.98;;;;;;;;;;4981788;28;20042;-74
2023/10/20 12:51:49;;;;;;;0.93;0.90;;;;;;;;;;4983204;28;20046;-71
2023/10/20 12:54:15;;;;;;;0.93;0.93;;;;;;;;;;4982479;28;20061;-71
2023/10/20 12:56:41;;;;;;;0.88;0.75;;;;;;;;;;4985426;28;20038;-72
2023/10/20 12:59:07;;;;;;;0.73;0.70;;;;;;;;;;4983840;28;20125;-71
2023/10/20 13:01:33;;;;;;;1.23;1.13;;;;;;;;;;4983783;28;20057;-73
2023/10/20 13:03:59;;;;;;;1.10;1.00;;;;;;;;;;4984042;28;20892;-71
2023/10/20 13:06:25;;;;;;;1.20;1.10;;;;;;;;;;4978680;28;20046;-70
2023/10/20 13:08:52;;;;;;;0.93;0.82;;;;;;;;;;4984375;28;20540;-72
2023/10/20 13:11:18;;;;;;;1.88;0.98;;;;;;;;;;4979704;28;20508;-72
2023/10/20 13:13:44;;;;;;;0.80;0.80;;;;;;;;;;4983184;28;20134;-72
2023/10/20 13:16:10;;;;;;;0.70;0.70;;;;;;;;;;4983112;28;20047;-71
2023/10/20 13:18:36;;;;;;;2.58;0.70;;;;;;;;;;4983568;28;20046;-72
2023/10/20 13:21:05;;;;;;;3.13;0.90;;;;;;;;;;4983255;28;20053;-72
2023/10/20 13:23:32;;;;;;;0.82;0.80;;;;;;;;;;4982794;28;20042;-72
2023/10/20 13:25:59;;;;;;;0.93;0.90;;;;;;;;;;4983350;28;20153;-71
2023/10/20 13:28:25;;;;;;;0.73;0.73;;;;;;;;;;4983055;28;20049;-73
2023/10/20 13:30:59;;;;;;;1.23;0.60;;;;;;;;;;4982919;28;20046;-72
2023/10/20 13:33:25;;;;;;;1.00;0.90;;;;;;;;;;4980620;28;20038;-72
2023/10/20 13:35:51;;;;;;;0.90;0.90;;;;;;;;;;4982854;28;20132;-72
2023/10/20 13:38:18;;;;;;;0.70;0.70;;;;;;;;;;4982165;28;20034;-72
2023/10/20 13:40:44;;;;;;;0.85;0.82;;;;;;;;;;4982700;28;20062;-72
2023/10/20 13:43:10;;;;;;;0.77;0.77;;;;;;;;;;4979429;28;20046;-71
2023/10/20 13:45:37;;;;;;;0.90;0.90;;;;;;;;;;4983986;28;20054;-72
2023/10/20 13:48:03;;;;;;;1.10;1.00;;;;;;;;;;4984007;28;20042;-72
2023/10/20 13:50:29;;;;;;;1.30;1.00;;;;;;;;;;4983884;28;20042;-71
2023/10/20 13:52:55;;;;;;;0.70;0.70;;;;;;;;;;4983458;28;20038;-72
2023/10/20 13:55:22;;;;;;;0.90;0.90;;;;;;;;;;4999780;28;20046;-73
2023/10/20 13:57:49;;;;;;;1.02;1.00;;;;;;;;;;4983281;28;20044;-71
2023/10/20 14:00:15;;;;;;;0.90;0.73;;;;;;;;;;4968085;28;20046;-71
2023/10/20 14:02:42;;;;;;;1.00;0.90;;;;;;;;;;4982316;28;20096;-70
2023/10/20 14:05:08;;;;;;;1.35;1.20;;;;;;;;;;4984959;28;20467;-70
2023/10/20 14:07:34;;;;;;;1.60;1.00;;;;;;;;;;4982745;28;20699;-70
2023/10/20 14:10:00;;;;;;;1.25;1.15;;;;;;;;;;4983625;28;20050;-70
2023/10/20 14:12:26;;;;;;;1.33;0.90;;;;;;;;;;4983153;28;20057;-71
2023/10/20 14:14:52;;;;;;;1.42;0.90;;;;;;;;;;4983686;28;20444;-72
2023/10/20 14:17:18;;;;;;;1.13;1.02;;;;;;;;;;4984612;28;20133;-71
2023/10/20 14:19:45;;;;;;;1.30;1.20;;;;;;;;;;4983544;28;20042;-73
2023/10/20 14:22:11;;;;;;;1.08;0.93;;;;;;;;;;4982875;28;20042;-71
2023/10/20 14:24:37;;;;;;;1.42;1.17;;;;;;;;;;4983017;28;20112;-72
2023/10/20 14:27:03;;;;;;;0.70;0.70;;;;;;;;;;4983566;28;20556;-71
2023/10/20 14:29:29;;;;;;;1.42;1.23;;;;;;;;;;4983131;28;20060;-73
2023/10/20 14:31:58;;;;;;;1.80;0.90;;;;;;;;;;4981662;28;20046;-73
2023/10/20 14:34:24;;;;;;;0.75;0.70;;;;;;;;;;4981983;28;20038;-70
2023/10/20 14:36:50;;;;;;;1.00;0.90;;;;;;;;;;4982771;28;20488;-72
2023/10/20 14:39:17;;;;;;;2.00;0.93;;;;;;;;;;4985104;28;20156;-70
2023/10/20 14:41:43;;;;;;;0.60;0.60;;;;;;;;;;4982689;28;20134;-71
2023/10/20 14:44:09;;;;;;;0.80;0.80;;;;;;;;;;4983285;28;20583;-72
2023/10/20 14:46:36;;;;;;;0.70;0.68;;;;;;;;;;4983104;28;20125;-72
2023/10/20 14:49:02;;;;;;;0.70;0.60;;;;;;;;;;4983863;28;20076;-71
2023/10/20 14:51:29;;;;;;;0.90;0.90;;;;;;;;;;4981323;28;20093;-71
2023/10/20 14:53:55;;;;;;;1.00;0.70;;;;;;;;;;4980601;28;20046;-71
2023/10/20 14:56:22;;;;;;;1.63;1.10;;;;;;;;;;4965066;28;20042;-70
2023/10/20 14:58:48;;;;;;;0.80;0.80;;;;;;;;;;4980941;28;20121;-70
2023/10/20 15:01:14;;;;;;;0.85;0.85;;;;;;;;;;4982241;28;20042;-71
2023/10/20 15:03:40;;;;;;;0.80;0.80;;;;;;;;;;4982052;28;20049;-70
2023/10/20 15:06:06;;;;;;;0.77;0.77;;;;;;;;;;4980834;28;20099;-70
2023/10/20 15:08:33;;;;;;;0.63;0.63;;;;;;;;;;4958382;28;20042;-69
2023/10/20 15:10:59;;;;;;;0.82;0.82;;;;;;;;;;4980127;28;20046;-70
2023/10/20 15:13:25;;;;;;;0.60;0.60;;;;;;;;;;4980279;28;20046;-70